sensor_id;sensor_type;location;lat;lon;timestamp;P1;durP1;ratioP1;P2;durP2;ratioP2
52029;SDS011;38043;53.224;6.580;2023-09-08T00:01:05;11.75;;;6.82;;
52029;SDS011;38043;53.224;6.580;2023-09-08T00:03:30;16.38;;;7.00;;
52029;SDS011;38043;53.224;6.580;2023-09-08T00:05:56;10.40;;;7.00;;
52029;SDS011;38043;53.224;6.580;2023-09-08T00:08:22;9.60;;;7.07;;
52029;SDS011;38043;53.224;6.580;2023-09-08T00:10:49;11.80;;;7.67;;
52029;SDS011;38043;53.224;6.580;2023-09-08T00:13:14;9.35;;;7.38;;
52029;SDS011;38043;53.224;6.580;2023-09-08T00:15:40;12.60;;;8.20;;
52029;SDS011;38043;53.224;6.580;2023-09-08T00:18:06;13.55;;;8.23;;
52029;SDS011;38043;53.224;6.580;2023-09-08T00:20:31;9.35;;;7.10;;
52029;SDS011;38043;53.224;6.580;2023-09-08T00:22:57;9.30;;;7.63;;
52029;SDS011;38043;53.224;6.580;2023-09-08T00:25:23;15.85;;;7.82;;
52029;SDS011;38043;53.224;6.580;2023-09-08T00:27:48;11.55;;;8.25;;
52029;SDS011;38043;53.224;6.580;2023-09-08T00:30:14;9.32;;;7.35;;
52029;SDS011;38043;53.224;6.580;2023-09-08T00:32:39;13.45;;;7.90;;
52029;SDS011;38043;53.224;6.580;2023-09-08T00:35:05;11.20;;;7.28;;
52029;SDS011;38043;53.224;6.580;2023-09-08T00:37:32;14.00;;;8.30;;
52029;SDS011;38043;53.224;6.580;2023-09-08T00:39:58;13.07;;;8.15;;
52029;SDS011;38043;53.224;6.580;2023-09-08T00:42:24;11.45;;;8.23;;
52029;SDS011;38043;53.224;6.580;2023-09-08T00:44:49;10.60;;;7.45;;
52029;SDS011;38043;53.224;6.580;2023-09-08T00:47:15;11.85;;;8.68;;
52029;SDS011;38043;53.224;6.580;2023-09-08T00:49:40;13.07;;;8.88;;
52029;SDS011;38043;53.224;6.580;2023-09-08T00:52:06;11.88;;;9.23;;
52029;SDS011;38043;53.224;6.580;2023-09-08T00:54:32;14.45;;;8.43;;
52029;SDS011;38043;53.224;6.580;2023-09-08T00:56:58;22.40;;;8.80;;
52029;SDS011;38043;53.224;6.580;2023-09-08T00:59:28;10.60;;;7.90;;
52029;SDS011;38043;53.224;6.580;2023-09-08T01:01:57;13.52;;;7.40;;
52029;SDS011;38043;53.224;6.580;2023-09-08T01:04:22;14.02;;;7.65;;
52029;SDS011;38043;53.224;6.580;2023-09-08T01:06:48;9.48;;;7.78;;
52029;SDS011;38043;53.224;6.580;2023-09-08T01:09:14;9.77;;;7.50;;
52029;SDS011;38043;53.224;6.580;2023-09-08T01:11:41;11.05;;;7.80;;
52029;SDS011;38043;53.224;6.580;2023-09-08T01:14:07;10.95;;;7.45;;
52029;SDS011;38043;53.224;6.580;2023-09-08T01:16:33;15.23;;;9.05;;
52029;SDS011;38043;53.224;6.580;2023-09-08T01:18:58;12.38;;;8.63;;
52029;SDS011;38043;53.224;6.580;2023-09-08T01:27:21;11.48;;;7.90;;
52029;SDS011;38043;53.224;6.580;2023-09-08T01:29:50;13.13;;;8.40;;
52029;SDS011;38043;53.224;6.580;2023-09-08T01:32:18;10.93;;;8.15;;
52029;SDS011;38043;53.224;6.580;2023-09-08T01:34:44;10.30;;;7.95;;
52029;SDS011;38043;53.224;6.580;2023-09-08T01:37:10;15.25;;;8.25;;
52029;SDS011;38043;53.224;6.580;2023-09-08T01:39:36;11.60;;;8.45;;
52029;SDS011;38043;53.224;6.580;2023-09-08T01:42:02;10.60;;;7.93;;
52029;SDS011;38043;53.224;6.580;2023-09-08T01:44:28;12.07;;;8.15;;
52029;SDS011;38043;53.224;6.580;2023-09-08T01:46:53;12.73;;;8.70;;
52029;SDS011;38043;53.224;6.580;2023-09-08T01:49:22;11.80;;;8.18;;
52029;SDS011;38043;53.224;6.580;2023-09-08T01:51:48;11.48;;;8.43;;
52029;SDS011;38043;53.224;6.580;2023-09-08T01:54:14;10.10;;;7.38;;
52029;SDS011;38043;53.224;6.580;2023-09-08T01:56:39;9.55;;;7.60;;
52029;SDS011;38043;53.224;6.580;2023-09-08T01:59:05;11.35;;;7.55;;
52029;SDS011;38043;53.224;6.580;2023-09-08T02:01:30;13.18;;;8.73;;
52029;SDS011;38043;53.224;6.580;2023-09-08T02:03:56;11.65;;;7.35;;
52029;SDS011;38043;53.224;6.580;2023-09-08T02:06:22;15.20;;;8.02;;
52029;SDS011;38043;53.224;6.580;2023-09-08T02:08:47;10.20;;;8.02;;
52029;SDS011;38043;53.224;6.580;2023-09-08T02:11:13;9.63;;;8.43;;
52029;SDS011;38043;53.224;6.580;2023-09-08T02:13:40;10.50;;;7.63;;
52029;SDS011;38043;53.224;6.580;2023-09-08T02:16:07;12.60;;;8.77;;
52029;SDS011;38043;53.224;6.580;2023-09-08T02:18:37;9.68;;;7.50;;
52029;SDS011;38043;53.224;6.580;2023-09-08T02:21:03;14.38;;;8.02;;
52029;SDS011;38043;53.224;6.580;2023-09-08T02:23:29;11.95;;;7.43;;
52029;SDS011;38043;53.224;6.580;2023-09-08T02:25:55;9.77;;;8.38;;
52029;SDS011;38043;53.224;6.580;2023-09-08T02:28:20;10.35;;;7.80;;
52029;SDS011;38043;53.224;6.580;2023-09-08T02:30:46;9.75;;;7.95;;
52029;SDS011;38043;53.224;6.580;2023-09-08T02:33:12;15.75;;;7.78;;
52029;SDS011;38043;53.224;6.580;2023-09-08T02:35:38;10.38;;;8.27;;
52029;SDS011;38043;53.224;6.580;2023-09-08T02:38:04;11.52;;;8.43;;
52029;SDS011;38043;53.224;6.580;2023-09-08T02:40:33;12.80;;;8.43;;
52029;SDS011;38043;53.224;6.580;2023-09-08T02:43:02;9.85;;;8.35;;
52029;SDS011;38043;53.224;6.580;2023-09-08T02:45:28;11.40;;;8.48;;
52029;SDS011;38043;53.224;6.580;2023-09-08T02:47:54;15.43;;;8.98;;
52029;SDS011;38043;53.224;6.580;2023-09-08T02:50:20;13.10;;;9.25;;
52029;SDS011;38043;53.224;6.580;2023-09-08T02:52:46;13.38;;;8.93;;
52029;SDS011;38043;53.224;6.580;2023-09-08T02:55:11;14.32;;;8.93;;
52029;SDS011;38043;53.224;6.580;2023-09-08T02:57:38;15.20;;;9.15;;
52029;SDS011;38043;53.224;6.580;2023-09-08T03:00:04;14.88;;;9.50;;
52029;SDS011;38043;53.224;6.580;2023-09-08T03:02:32;13.25;;;9.18;;
52029;SDS011;38043;53.224;6.580;2023-09-08T03:04:58;11.88;;;8.82;;
52029;SDS011;38043;53.224;6.580;2023-09-08T03:07:24;11.38;;;9.43;;
52029;SDS011;38043;53.224;6.580;2023-09-08T03:09:49;13.35;;;9.13;;
52029;SDS011;38043;53.224;6.580;2023-09-08T03:12:15;16.05;;;9.15;;
52029;SDS011;38043;53.224;6.580;2023-09-08T03:14:40;12.18;;;8.88;;
52029;SDS011;38043;53.224;6.580;2023-09-08T03:17:06;12.45;;;9.90;;
52029;SDS011;38043;53.224;6.580;2023-09-08T03:19:32;19.27;;;10.20;;
52029;SDS011;38043;53.224;6.580;2023-09-08T03:21:57;10.23;;;9.15;;
52029;SDS011;38043;53.224;6.580;2023-09-08T03:24:23;11.55;;;9.32;;
52029;SDS011;38043;53.224;6.580;2023-09-08T03:26:49;14.25;;;10.00;;
52029;SDS011;38043;53.224;6.580;2023-09-08T03:29:15;11.13;;;9.20;;
52029;SDS011;38043;53.224;6.580;2023-09-08T03:31:40;13.57;;;9.90;;
52029;SDS011;38043;53.224;6.580;2023-09-08T03:34:06;15.18;;;9.93;;
52029;SDS011;38043;53.224;6.580;2023-09-08T03:36:32;13.43;;;9.70;;
52029;SDS011;38043;53.224;6.580;2023-09-08T03:39:01;11.10;;;9.18;;
52029;SDS011;38043;53.224;6.580;2023-09-08T03:41:27;14.35;;;9.70;;
52029;SDS011;38043;53.224;6.580;2023-09-08T03:43:53;12.80;;;9.68;;
52029;SDS011;38043;53.224;6.580;2023-09-08T03:46:19;14.35;;;9.95;;
52029;SDS011;38043;53.224;6.580;2023-09-08T03:48:47;13.88;;;9.82;;
52029;SDS011;38043;53.224;6.580;2023-09-08T03:51:12;11.75;;;9.50;;
52029;SDS011;38043;53.224;6.580;2023-09-08T03:53:38;14.68;;;9.73;;
52029;SDS011;38043;53.224;6.580;2023-09-08T03:56:04;11.40;;;9.00;;
52029;SDS011;38043;53.224;6.580;2023-09-08T03:58:29;11.60;;;9.23;;
52029;SDS011;38043;53.224;6.580;2023-09-08T04:00:55;16.02;;;10.38;;
52029;SDS011;38043;53.224;6.580;2023-09-08T04:03:20;15.38;;;9.77;;
52029;SDS011;38043;53.224;6.580;2023-09-08T04:05:46;14.23;;;10.10;;
52029;SDS011;38043;53.224;6.580;2023-09-08T04:08:12;15.40;;;10.23;;
52029;SDS011;38043;53.224;6.580;2023-09-08T04:10:37;15.07;;;9.90;;
52029;SDS011;38043;53.224;6.580;2023-09-08T04:13:03;14.02;;;9.95;;
52029;SDS011;38043;53.224;6.580;2023-09-08T04:15:29;17.42;;;10.88;;
52029;SDS011;38043;53.224;6.580;2023-09-08T04:17:55;17.85;;;10.55;;
52029;SDS011;38043;53.224;6.580;2023-09-08T04:20:22;12.23;;;10.55;;
52029;SDS011;38043;53.224;6.580;2023-09-08T04:22:48;18.85;;;10.30;;
52029;SDS011;38043;53.224;6.580;2023-09-08T04:25:13;18.17;;;10.32;;
52029;SDS011;38043;53.224;6.580;2023-09-08T04:27:39;18.23;;;10.23;;
52029;SDS011;38043;53.224;6.580;2023-09-08T04:30:05;16.70;;;11.43;;
52029;SDS011;38043;53.224;6.580;2023-09-08T04:32:31;13.18;;;10.40;;
52029;SDS011;38043;53.224;6.580;2023-09-08T04:34:57;16.35;;;11.05;;
52029;SDS011;38043;53.224;6.580;2023-09-08T04:37:23;13.43;;;9.60;;
52029;SDS011;38043;53.224;6.580;2023-09-08T04:39:49;10.75;;;9.65;;
52029;SDS011;38043;53.224;6.580;2023-09-08T04:42:14;13.82;;;10.23;;
52029;SDS011;38043;53.224;6.580;2023-09-08T04:44:40;14.65;;;10.23;;
52029;SDS011;38043;53.224;6.580;2023-09-08T04:47:06;17.05;;;10.88;;
52029;SDS011;38043;53.224;6.580;2023-09-08T04:49:31;13.23;;;10.57;;
52029;SDS011;38043;53.224;6.580;2023-09-08T04:51:57;14.90;;;10.73;;
52029;SDS011;38043;53.224;6.580;2023-09-08T04:54:23;15.52;;;10.55;;
52029;SDS011;38043;53.224;6.580;2023-09-08T04:56:52;14.40;;;10.77;;
52029;SDS011;38043;53.224;6.580;2023-09-08T04:59:18;17.40;;;11.23;;
52029;SDS011;38043;53.224;6.580;2023-09-08T05:01:44;15.77;;;11.50;;
52029;SDS011;38043;53.224;6.580;2023-09-08T05:04:09;16.90;;;11.43;;
52029;SDS011;38043;53.224;6.580;2023-09-08T05:06:35;17.02;;;10.27;;
52029;SDS011;38043;53.224;6.580;2023-09-08T05:09:01;13.20;;;11.80;;
52029;SDS011;38043;53.224;6.580;2023-09-08T05:11:27;17.58;;;12.65;;
52029;SDS011;38043;53.224;6.580;2023-09-08T05:13:53;15.60;;;11.63;;
52029;SDS011;38043;53.224;6.580;2023-09-08T05:16:18;15.85;;;11.07;;
52029;SDS011;38043;53.224;6.580;2023-09-08T05:18:51;18.92;;;11.50;;
52029;SDS011;38043;53.224;6.580;2023-09-08T05:21:16;18.50;;;11.75;;
52029;SDS011;38043;53.224;6.580;2023-09-08T05:23:42;20.38;;;11.43;;
52029;SDS011;38043;53.224;6.580;2023-09-08T05:26:08;15.07;;;11.68;;
52029;SDS011;38043;53.224;6.580;2023-09-08T05:28:33;19.90;;;12.10;;
52029;SDS011;38043;53.224;6.580;2023-09-08T05:30:59;16.67;;;11.45;;
52029;SDS011;38043;53.224;6.580;2023-09-08T05:33:24;17.13;;;11.82;;
52029;SDS011;38043;53.224;6.580;2023-09-08T05:35:50;17.20;;;11.32;;
52029;SDS011;38043;53.224;6.580;2023-09-08T05:38:16;13.63;;;11.40;;
52029;SDS011;38043;53.224;6.580;2023-09-08T05:40:41;17.80;;;12.07;;
52029;SDS011;38043;53.224;6.580;2023-09-08T05:43:08;15.18;;;11.50;;
52029;SDS011;38043;53.224;6.580;2023-09-08T05:45:33;20.17;;;12.35;;
52029;SDS011;38043;53.224;6.580;2023-09-08T05:47:59;19.63;;;11.73;;
52029;SDS011;38043;53.224;6.580;2023-09-08T05:50:26;24.35;;;11.82;;
52029;SDS011;38043;53.224;6.580;2023-09-08T05:52:52;14.45;;;12.07;;
52029;SDS011;38043;53.224;6.580;2023-09-08T05:55:17;17.25;;;11.68;;
52029;SDS011;38043;53.224;6.580;2023-09-08T05:57:43;22.92;;;12.30;;
52029;SDS011;38043;53.224;6.580;2023-09-08T06:00:09;17.48;;;11.82;;
52029;SDS011;38043;53.224;6.580;2023-09-08T06:02:35;18.75;;;12.15;;
52029;SDS011;38043;53.224;6.580;2023-09-08T06:05:01;18.90;;;11.40;;
52029;SDS011;38043;53.224;6.580;2023-09-08T06:07:26;24.08;;;11.88;;
52029;SDS011;38043;53.224;6.580;2023-09-08T06:09:52;17.02;;;12.18;;
52029;SDS011;38043;53.224;6.580;2023-09-08T06:12:17;17.75;;;12.35;;
52029;SDS011;38043;53.224;6.580;2023-09-08T06:14:43;18.25;;;12.68;;
52029;SDS011;38043;53.224;6.580;2023-09-08T06:17:09;18.13;;;11.90;;
52029;SDS011;38043;53.224;6.580;2023-09-08T06:19:35;18.60;;;12.60;;
52029;SDS011;38043;53.224;6.580;2023-09-08T06:22:01;16.05;;;11.68;;
52029;SDS011;38043;53.224;6.580;2023-09-08T06:24:26;17.80;;;11.50;;
52029;SDS011;38043;53.224;6.580;2023-09-08T06:26:52;19.17;;;11.63;;
52029;SDS011;38043;53.224;6.580;2023-09-08T06:29:18;18.80;;;12.45;;
52029;SDS011;38043;53.224;6.580;2023-09-08T06:31:44;19.92;;;11.68;;
52029;SDS011;38043;53.224;6.580;2023-09-08T06:34:10;17.30;;;11.43;;
52029;SDS011;38043;53.224;6.580;2023-09-08T06:36:35;19.10;;;11.43;;
52029;SDS011;38043;53.224;6.580;2023-09-08T06:39:01;13.80;;;11.48;;
52029;SDS011;38043;53.224;6.580;2023-09-08T06:41:27;15.32;;;10.38;;
52029;SDS011;38043;53.224;6.580;2023-09-08T06:43:53;16.10;;;11.32;;
52029;SDS011;38043;53.224;6.580;2023-09-08T06:46:19;16.05;;;10.48;;
52029;SDS011;38043;53.224;6.580;2023-09-08T06:48:45;14.93;;;10.77;;
52029;SDS011;38043;53.224;6.580;2023-09-08T06:51:10;15.82;;;10.52;;
52029;SDS011;38043;53.224;6.580;2023-09-08T06:53:36;16.50;;;11.70;;
52029;SDS011;38043;53.224;6.580;2023-09-08T06:56:02;13.93;;;9.63;;
52029;SDS011;38043;53.224;6.580;2023-09-08T06:58:28;17.42;;;9.80;;
52029;SDS011;38043;53.224;6.580;2023-09-08T07:00:53;12.88;;;9.50;;
52029;SDS011;38043;53.224;6.580;2023-09-08T07:03:20;13.05;;;9.88;;
52029;SDS011;38043;53.224;6.580;2023-09-08T07:05:49;20.90;;;9.48;;
52029;SDS011;38043;53.224;6.580;2023-09-08T07:08:15;14.10;;;9.48;;
52029;SDS011;38043;53.224;6.580;2023-09-08T07:10:42;14.65;;;9.70;;
52029;SDS011;38043;53.224;6.580;2023-09-08T07:13:08;17.33;;;9.73;;
52029;SDS011;38043;53.224;6.580;2023-09-08T07:15:34;12.85;;;9.68;;
52029;SDS011;38043;53.224;6.580;2023-09-08T07:18:00;12.23;;;9.18;;
52029;SDS011;38043;53.224;6.580;2023-09-08T07:20:25;12.00;;;9.32;;
52029;SDS011;38043;53.224;6.580;2023-09-08T07:22:51;14.07;;;9.98;;
52029;SDS011;38043;53.224;6.580;2023-09-08T07:25:17;12.25;;;9.82;;
52029;SDS011;38043;53.224;6.580;2023-09-08T07:27:43;14.65;;;9.30;;
52029;SDS011;38043;53.224;6.580;2023-09-08T07:30:08;11.68;;;9.07;;
52029;SDS011;38043;53.224;6.580;2023-09-08T07:32:34;11.00;;;9.07;;
52029;SDS011;38043;53.224;6.580;2023-09-08T07:35:00;15.15;;;9.23;;
52029;SDS011;38043;53.224;6.580;2023-09-08T07:37:25;12.02;;;9.02;;
52029;SDS011;38043;53.224;6.580;2023-09-08T07:39:51;16.95;;;9.70;;
52029;SDS011;38043;53.224;6.580;2023-09-08T07:42:17;12.32;;;8.68;;
52029;SDS011;38043;53.224;6.580;2023-09-08T07:44:44;12.80;;;8.48;;
52029;SDS011;38043;53.224;6.580;2023-09-08T07:47:10;15.40;;;9.07;;
52029;SDS011;38043;53.224;6.580;2023-09-08T07:49:36;18.25;;;8.35;;
52029;SDS011;38043;53.224;6.580;2023-09-08T07:52:01;17.17;;;8.80;;
52029;SDS011;38043;53.224;6.580;2023-09-08T07:54:29;13.52;;;8.30;;
52029;SDS011;38043;53.224;6.580;2023-09-08T07:56:55;12.50;;;8.48;;
52029;SDS011;38043;53.224;6.580;2023-09-08T07:59:21;16.45;;;8.07;;
52029;SDS011;38043;53.224;6.580;2023-09-08T08:01:46;9.93;;;8.38;;
52029;SDS011;38043;53.224;6.580;2023-09-08T08:04:12;14.25;;;7.93;;
52029;SDS011;38043;53.224;6.580;2023-09-08T08:06:38;12.65;;;8.40;;
52029;SDS011;38043;53.224;6.580;2023-09-08T08:09:04;9.38;;;7.30;;
52029;SDS011;38043;53.224;6.580;2023-09-08T08:11:30;13.20;;;7.47;;
52029;SDS011;38043;53.224;6.580;2023-09-08T08:13:55;13.20;;;8.10;;
52029;SDS011;38043;53.224;6.580;2023-09-08T08:16:24;9.80;;;7.60;;
52029;SDS011;38043;53.224;6.580;2023-09-08T08:18:50;8.70;;;6.82;;
52029;SDS011;38043;53.224;6.580;2023-09-08T08:21:15;11.15;;;6.93;;
52029;SDS011;38043;53.224;6.580;2023-09-08T08:23:41;11.75;;;6.75;;
52029;SDS011;38043;53.224;6.580;2023-09-08T08:26:07;7.68;;;6.22;;
52029;SDS011;38043;53.224;6.580;2023-09-08T08:28:33;10.45;;;6.15;;
52029;SDS011;38043;53.224;6.580;2023-09-08T08:30:59;11.65;;;6.05;;
52029;SDS011;38043;53.224;6.580;2023-09-08T08:33:24;8.57;;;5.40;;
52029;SDS011;38043;53.224;6.580;2023-09-08T08:35:51;8.23;;;5.00;;
52029;SDS011;38043;53.224;6.580;2023-09-08T08:38:18;9.88;;;5.43;;
52029;SDS011;38043;53.224;6.580;2023-09-08T08:40:44;11.63;;;5.63;;
52029;SDS011;38043;53.224;6.580;2023-09-08T08:43:10;11.45;;;5.22;;
52029;SDS011;38043;53.224;6.580;2023-09-08T08:45:36;7.03;;;4.63;;
52029;SDS011;38043;53.224;6.580;2023-09-08T08:48:04;12.15;;;4.60;;
52029;SDS011;38043;53.224;6.580;2023-09-08T08:50:31;9.45;;;4.78;;
52029;SDS011;38043;53.224;6.580;2023-09-08T08:52:58;11.93;;;4.93;;
52029;SDS011;38043;53.224;6.580;2023-09-08T08:55:24;9.75;;;4.72;;
52029;SDS011;38043;53.224;6.580;2023-09-08T08:57:50;8.70;;;4.90;;
52029;SDS011;38043;53.224;6.580;2023-09-08T09:00:17;7.72;;;4.28;;
52029;SDS011;38043;53.224;6.580;2023-09-08T09:02:43;12.60;;;4.43;;
52029;SDS011;38043;53.224;6.580;2023-09-08T09:05:13;10.05;;;4.90;;
52029;SDS011;38043;53.224;6.580;2023-09-08T09:07:40;8.73;;;4.68;;
52029;SDS011;38043;53.224;6.580;2023-09-08T09:10:07;8.90;;;4.80;;
52029;SDS011;38043;53.224;6.580;2023-09-08T09:12:33;8.93;;;4.70;;
52029;SDS011;38043;53.224;6.580;2023-09-08T09:15:01;10.38;;;4.68;;
52029;SDS011;38043;53.224;6.580;2023-09-08T09:17:29;7.53;;;4.53;;
52029;SDS011;38043;53.224;6.580;2023-09-08T09:20:18;5.43;;;4.20;;
52029;SDS011;38043;53.224;6.580;2023-09-08T09:22:46;7.57;;;4.55;;
52029;SDS011;38043;53.224;6.580;2023-09-08T09:25:28;5.55;;;4.15;;
52029;SDS011;38043;53.224;6.580;2023-09-08T09:27:55;9.02;;;4.80;;
52029;SDS011;38043;53.224;6.580;2023-09-08T09:30:22;9.65;;;4.50;;
52029;SDS011;38043;53.224;6.580;2023-09-08T09:32:49;13.10;;;4.20;;
52029;SDS011;38043;53.224;6.580;2023-09-08T09:35:39;7.70;;;4.53;;
52029;SDS011;38043;53.224;6.580;2023-09-08T09:38:09;7.90;;;4.90;;
52029;SDS011;38043;53.224;6.580;2023-09-08T09:40:36;8.43;;;4.65;;
52029;SDS011;38043;53.224;6.580;2023-09-08T09:43:05;5.22;;;3.90;;
52029;SDS011;38043;53.224;6.580;2023-09-08T09:45:33;9.88;;;4.38;;
52029;SDS011;38043;53.224;6.580;2023-09-08T09:53:00;6.40;;;4.63;;
52029;SDS011;38043;53.224;6.580;2023-09-08T09:57:56;10.65;;;4.20;;
52029;SDS011;38043;53.224;6.580;2023-09-08T10:00:26;7.72;;;3.95;;
52029;SDS011;38043;53.224;6.580;2023-09-08T10:02:56;7.20;;;4.15;;
52029;SDS011;38043;53.224;6.580;2023-09-08T10:05:23;8.63;;;4.45;;
52029;SDS011;38043;53.224;6.580;2023-09-08T10:07:49;8.98;;;4.18;;
52029;SDS011;38043;53.224;6.580;2023-09-08T10:10:16;7.03;;;4.00;;
52029;SDS011;38043;53.224;6.580;2023-09-08T10:12:46;6.72;;;4.38;;
52029;SDS011;38043;53.224;6.580;2023-09-08T10:15:18;10.75;;;4.20;;
52029;SDS011;38043;53.224;6.580;2023-09-08T10:17:46;8.73;;;4.60;;
52029;SDS011;38043;53.224;6.580;2023-09-08T10:20:17;10.15;;;4.10;;
52029;SDS011;38043;53.224;6.580;2023-09-08T10:22:46;9.50;;;4.25;;
52029;SDS011;38043;53.224;6.580;2023-09-08T10:25:20;8.57;;;3.95;;
52029;SDS011;38043;53.224;6.580;2023-09-08T10:27:49;8.18;;;4.88;;
52029;SDS011;38043;53.224;6.580;2023-09-08T10:30:15;8.52;;;3.92;;
52029;SDS011;38043;53.224;6.580;2023-09-08T10:32:45;7.75;;;4.50;;
52029;SDS011;38043;53.224;6.580;2023-09-08T10:35:14;8.30;;;4.05;;
52029;SDS011;38043;53.224;6.580;2023-09-08T10:37:42;6.68;;;4.00;;
52029;SDS011;38043;53.224;6.580;2023-09-08T10:40:21;8.18;;;4.35;;
52029;SDS011;38043;53.224;6.580;2023-09-08T10:42:48;5.97;;;3.90;;
52029;SDS011;38043;53.224;6.580;2023-09-08T10:45:15;10.60;;;4.63;;
52029;SDS011;38043;53.224;6.580;2023-09-08T10:50:16;9.75;;;4.20;;
52029;SDS011;38043;53.224;6.580;2023-09-08T10:52:43;8.38;;;4.43;;
52029;SDS011;38043;53.224;6.580;2023-09-08T10:55:10;9.17;;;3.80;;
52029;SDS011;38043;53.224;6.580;2023-09-08T10:57:44;7.95;;;3.72;;
52029;SDS011;38043;53.224;6.580;2023-09-08T11:00:11;6.75;;;3.42;;
52029;SDS011;38043;53.224;6.580;2023-09-08T11:02:47;7.82;;;3.80;;
52029;SDS011;38043;53.224;6.580;2023-09-08T11:05:14;8.57;;;4.07;;
52029;SDS011;38043;53.224;6.580;2023-09-08T11:07:44;5.45;;;3.72;;
52029;SDS011;38043;53.224;6.580;2023-09-08T11:10:11;11.90;;;4.80;;
52029;SDS011;38043;53.224;6.580;2023-09-08T11:15:03;6.38;;;4.07;;
52029;SDS011;38043;53.224;6.580;2023-09-08T11:17:33;6.53;;;3.80;;
52029;SDS011;38043;53.224;6.580;2023-09-08T11:20:01;8.90;;;4.28;;
52029;SDS011;38043;53.224;6.580;2023-09-08T11:22:34;5.45;;;3.80;;
52029;SDS011;38043;53.224;6.580;2023-09-08T11:25:00;6.28;;;3.95;;
52029;SDS011;38043;53.224;6.580;2023-09-08T11:27:30;5.35;;;3.95;;
52029;SDS011;38043;53.224;6.580;2023-09-08T11:29:56;10.40;;;4.30;;
52029;SDS011;38043;53.224;6.580;2023-09-08T11:32:23;9.63;;;4.00;;
52029;SDS011;38043;53.224;6.580;2023-09-08T11:34:49;6.45;;;3.90;;
52029;SDS011;38043;53.224;6.580;2023-09-08T11:37:16;9.02;;;3.78;;
52029;SDS011;38043;53.224;6.580;2023-09-08T11:39:46;9.77;;;4.40;;
52029;SDS011;38043;53.224;6.580;2023-09-08T11:42:13;7.93;;;3.90;;
52029;SDS011;38043;53.224;6.580;2023-09-08T11:44:40;7.60;;;3.70;;
52029;SDS011;38043;53.224;6.580;2023-09-08T11:47:07;13.10;;;3.90;;
52029;SDS011;38043;53.224;6.580;2023-09-08T11:49:37;6.55;;;3.80;;
52029;SDS011;38043;53.224;6.580;2023-09-08T11:52:08;7.80;;;4.22;;
52029;SDS011;38043;53.224;6.580;2023-09-08T11:54:34;10.60;;;4.40;;
52029;SDS011;38043;53.224;6.580;2023-09-08T11:57:01;7.32;;;4.05;;
52029;SDS011;38043;53.224;6.580;2023-09-08T11:59:30;8.38;;;3.78;;
52029;SDS011;38043;53.224;6.580;2023-09-08T12:01:57;6.55;;;3.83;;
52029;SDS011;38043;53.224;6.580;2023-09-08T12:04:23;11.95;;;3.70;;
52029;SDS011;38043;53.224;6.580;2023-09-08T12:06:50;7.38;;;3.80;;
52029;SDS011;38043;53.224;6.580;2023-09-08T12:09:17;8.90;;;4.10;;
52029;SDS011;38043;53.224;6.580;2023-09-08T12:11:45;5.95;;;3.90;;
52029;SDS011;38043;53.224;6.580;2023-09-08T12:14:11;5.38;;;3.58;;
52029;SDS011;38043;53.224;6.580;2023-09-08T12:16:38;14.82;;;4.45;;
52029;SDS011;38043;53.224;6.580;2023-09-08T12:19:05;6.40;;;3.47;;
52029;SDS011;38043;53.224;6.580;2023-09-08T12:21:53;8.10;;;4.13;;
52029;SDS011;38043;53.224;6.580;2023-09-08T12:24:19;6.28;;;3.20;;
52029;SDS011;38043;53.224;6.580;2023-09-08T12:26:45;8.17;;;4.03;;
52029;SDS011;38043;53.224;6.580;2023-09-08T12:29:13;7.37;;;3.60;;
52029;SDS011;38043;53.224;6.580;2023-09-08T12:31:39;4.38;;;3.63;;
52029;SDS011;38043;53.224;6.580;2023-09-08T12:34:05;11.53;;;3.83;;
52029;SDS011;38043;53.224;6.580;2023-09-08T12:36:34;7.15;;;3.50;;
52029;SDS011;38043;53.224;6.580;2023-09-08T12:39:03;5.40;;;4.15;;
52029;SDS011;38043;53.224;6.580;2023-09-08T12:41:30;10.73;;;4.25;;
52029;SDS011;38043;53.224;6.580;2023-09-08T12:43:55;5.33;;;4.33;;
52029;SDS011;38043;53.224;6.580;2023-09-08T12:46:21;6.13;;;3.77;;
52029;SDS011;38043;53.224;6.580;2023-09-08T12:48:47;9.83;;;3.87;;
52029;SDS011;38043;53.224;6.580;2023-09-08T12:51:12;8.53;;;4.00;;
52029;SDS011;38043;53.224;6.580;2023-09-08T12:53:38;6.60;;;3.80;;
52029;SDS011;38043;53.224;6.580;2023-09-08T12:56:03;10.60;;;4.27;;
52029;SDS011;38043;53.224;6.580;2023-09-08T12:58:29;7.40;;;3.97;;
52029;SDS011;38043;53.224;6.580;2023-09-08T13:00:55;5.73;;;3.60;;
52029;SDS011;38043;53.224;6.580;2023-09-08T13:03:21;7.22;;;3.78;;
52029;SDS011;38043;53.224;6.580;2023-09-08T13:05:47;6.33;;;3.63;;
52029;SDS011;38043;53.224;6.580;2023-09-08T13:08:12;9.33;;;3.60;;
52029;SDS011;38043;53.224;6.580;2023-09-08T13:10:43;7.35;;;3.63;;
52029;SDS011;38043;53.224;6.580;2023-09-08T13:13:09;4.63;;;3.50;;
52029;SDS011;38043;53.224;6.580;2023-09-08T13:15:34;6.53;;;3.53;;
52029;SDS011;38043;53.224;6.580;2023-09-08T13:18:01;5.18;;;3.80;;
52029;SDS011;38043;53.224;6.580;2023-09-08T13:20:26;6.30;;;3.80;;
52029;SDS011;38043;53.224;6.580;2023-09-08T13:22:52;5.53;;;3.70;;
52029;SDS011;38043;53.224;6.580;2023-09-08T13:25:18;5.57;;;4.00;;
52029;SDS011;38043;53.224;6.580;2023-09-08T13:27:43;6.30;;;4.03;;
52029;SDS011;38043;53.224;6.580;2023-09-08T13:30:10;7.40;;;3.67;;
52029;SDS011;38043;53.224;6.580;2023-09-08T13:32:43;4.43;;;3.53;;
52029;SDS011;38043;53.224;6.580;2023-09-08T13:35:09;6.97;;;3.80;;
52029;SDS011;38043;53.224;6.580;2023-09-08T13:37:35;5.63;;;3.90;;
52029;SDS011;38043;53.224;6.580;2023-09-08T13:40:03;6.50;;;4.00;;
52029;SDS011;38043;53.224;6.580;2023-09-08T13:42:29;6.22;;;3.72;;
52029;SDS011;38043;53.224;6.580;2023-09-08T13:44:54;6.30;;;3.73;;
52029;SDS011;38043;53.224;6.580;2023-09-08T13:47:20;5.90;;;3.83;;
52029;SDS011;38043;53.224;6.580;2023-09-08T13:49:48;7.32;;;4.00;;
52029;SDS011;38043;53.224;6.580;2023-09-08T13:52:13;7.43;;;4.20;;
52029;SDS011;38043;53.224;6.580;2023-09-08T13:54:39;8.20;;;3.60;;
52029;SDS011;38043;53.224;6.580;2023-09-08T13:57:05;7.20;;;3.67;;
52029;SDS011;38043;53.224;6.580;2023-09-08T13:59:31;7.33;;;3.90;;
52029;SDS011;38043;53.224;6.580;2023-09-08T14:01:57;5.20;;;3.90;;
52029;SDS011;38043;53.224;6.580;2023-09-08T14:04:27;6.35;;;4.13;;
52029;SDS011;38043;53.224;6.580;2023-09-08T14:06:52;7.07;;;3.90;;
52029;SDS011;38043;53.224;6.580;2023-09-08T14:09:18;10.52;;;4.32;;
52029;SDS011;38043;53.224;6.580;2023-09-08T14:11:44;5.63;;;3.92;;
52029;SDS011;38043;53.224;6.580;2023-09-08T14:14:10;7.35;;;3.95;;
52029;SDS011;38043;53.224;6.580;2023-09-08T14:16:36;5.93;;;3.67;;
52029;SDS011;38043;53.224;6.580;2023-09-08T14:19:01;10.60;;;3.92;;
52029;SDS011;38043;53.224;6.580;2023-09-08T14:21:27;5.65;;;3.55;;
52029;SDS011;38043;53.224;6.580;2023-09-08T14:23:53;7.82;;;3.35;;
52029;SDS011;38043;53.224;6.580;2023-09-08T14:26:20;8.30;;;3.85;;
52029;SDS011;38043;53.224;6.580;2023-09-08T14:28:45;7.13;;;4.13;;
52029;SDS011;38043;53.224;6.580;2023-09-08T14:31:11;6.45;;;4.00;;
52029;SDS011;38043;53.224;6.580;2023-09-08T14:33:37;8.30;;;4.40;;
52029;SDS011;38043;53.224;6.580;2023-09-08T14:36:03;6.75;;;4.25;;
52029;SDS011;38043;53.224;6.580;2023-09-08T14:38:28;8.82;;;3.97;;
52029;SDS011;38043;53.224;6.580;2023-09-08T14:40:55;8.52;;;3.72;;
52029;SDS011;38043;53.224;6.580;2023-09-08T14:43:24;6.88;;;4.03;;
52029;SDS011;38043;53.224;6.580;2023-09-08T14:45:51;6.35;;;4.00;;
52029;SDS011;38043;53.224;6.580;2023-09-08T14:48:17;6.00;;;4.00;;
52029;SDS011;38043;53.224;6.580;2023-09-08T14:50:44;7.38;;;3.75;;
52029;SDS011;38043;53.224;6.580;2023-09-08T14:53:10;8.52;;;4.35;;